sensor_id;sensor_type;location;lat;lon;timestamp;temperature;humidity
15481;DHT22;7842;50.904;6.670;2023-08-12T00:00:29;21.80;99.90
15481;DHT22;7842;50.904;6.670;2023-08-12T00:02:55;21.90;99.90
15481;DHT22;7842;50.904;6.670;2023-08-12T00:05:21;21.80;99.90
15481;DHT22;7842;50.904;6.670;2023-08-12T00:07:47;21.80;99.90
15481;DHT22;7842;50.904;6.670;2023-08-12T00:10:13;21.70;99.90
15481;DHT22;7842;50.904;6.670;2023-08-12T00:12:40;21.70;99.90
15481;DHT22;7842;50.904;6.670;2023-08-12T00:15:06;21.70;99.90
15481;DHT22;7842;50.904;6.670;2023-08-12T00:17:34;21.70;99.90
15481;DHT22;7842;50.904;6.670;2023-08-12T00:20:01;21.70;99.90
15481;DHT22;7842;50.904;6.670;2023-08-12T00:22:30;21.60;99.90
15481;DHT22;7842;50.904;6.670;2023-08-12T00:24:56;21.70;99.90
15481;DHT22;7842;50.904;6.670;2023-08-12T00:27:22;21.70;99.90
15481;DHT22;7842;50.904;6.670;2023-08-12T00:29:48;21.70;99.90
15481;DHT22;7842;50.904;6.670;2023-08-12T00:32:14;21.70;99.90
15481;DHT22;7842;50.904;6.670;2023-08-12T00:34:39;21.70;99.90
15481;DHT22;7842;50.904;6.670;2023-08-12T00:37:05;21.70;99.90
15481;DHT22;7842;50.904;6.670;2023-08-12T00:39:30;21.60;99.90
15481;DHT22;7842;50.904;6.670;2023-08-12T00:41:56;21.50;99.90
15481;DHT22;7842;50.904;6.670;2023-08-12T00:44:22;21.40;99.90
15481;DHT22;7842;50.904;6.670;2023-08-12T00:46:47;21.40;99.90
15481;DHT22;7842;50.904;6.670;2023-08-12T00:49:13;21.40;99.90
15481;DHT22;7842;50.904;6.670;2023-08-12T00:51:43;21.40;99.90
15481;DHT22;7842;50.904;6.670;2023-08-12T00:54:14;21.40;99.90
15481;DHT22;7842;50.904;6.670;2023-08-12T00:56:40;21.40;99.90
15481;DHT22;7842;50.904;6.670;2023-08-12T00:59:07;21.40;99.90
15481;DHT22;7842;50.904;6.670;2023-08-12T01:01:35;21.30;99.90
15481;DHT22;7842;50.904;6.670;2023-08-12T01:04:01;21.30;99.90
15481;DHT22;7842;50.904;6.670;2023-08-12T01:06:27;21.20;99.90
15481;DHT22;7842;50.904;6.670;2023-08-12T01:08:53;21.20;99.90
15481;DHT22;7842;50.904;6.670;2023-08-12T01:11:28;21.20;99.90
15481;DHT22;7842;50.904;6.670;2023-08-12T01:13:57;21.20;99.90
15481;DHT22;7842;50.904;6.670;2023-08-12T01:16:28;21.20;99.90
15481;DHT22;7842;50.904;6.670;2023-08-12T01:18:54;21.20;99.90
15481;DHT22;7842;50.904;6.670;2023-08-12T01:21:21;21.10;99.90
15481;DHT22;7842;50.904;6.670;2023-08-12T01:23:50;21.10;99.90
15481;DHT22;7842;50.904;6.670;2023-08-12T01:26:16;21.10;99.90
15481;DHT22;7842;50.904;6.670;2023-08-12T01:28:41;21.10;99.90
15481;DHT22;7842;50.904;6.670;2023-08-12T01:31:32;21.10;99.90
15481;DHT22;7842;50.904;6.670;2023-08-12T01:34:20;21.10;99.90
15481;DHT22;7842;50.904;6.670;2023-08-12T01:36:54;21.10;99.90
15481;DHT22;7842;50.904;6.670;2023-08-12T01:39:23;21.20;99.90
15481;DHT22;7842;50.904;6.670;2023-08-12T01:41:50;21.10;99.90
15481;DHT22;7842;50.904;6.670;2023-08-12T01:44:16;21.10;99.90
15481;DHT22;7842;50.904;6.670;2023-08-12T01:46:44;21.20;99.90
15481;DHT22;7842;50.904;6.670;2023-08-12T01:49:09;21.10;99.90
15481;DHT22;7842;50.904;6.670;2023-08-12T01:51:35;21.00;99.90
15481;DHT22;7842;50.904;6.670;2023-08-12T01:54:01;21.00;99.90
15481;DHT22;7842;50.904;6.670;2023-08-12T01:56:26;21.70;99.90
15481;DHT22;7842;50.904;6.670;2023-08-12T01:58:52;20.90;99.90
15481;DHT22;7842;50.904;6.670;2023-08-12T02:01:17;21.00;99.90
15481;DHT22;7842;50.904;6.670;2023-08-12T02:03:43;20.90;99.90
15481;DHT22;7842;50.904;6.670;2023-08-12T02:06:09;20.90;99.90
15481;DHT22;7842;50.904;6.670;2023-08-12T02:08:34;20.90;99.90
15481;DHT22;7842;50.904;6.670;2023-08-12T02:11:00;20.90;99.90
15481;DHT22;7842;50.904;6.670;2023-08-12T02:13:25;20.80;99.90
15481;DHT22;7842;50.904;6.670;2023-08-12T02:15:51;20.80;99.90
15481;DHT22;7842;50.904;6.670;2023-08-12T02:18:17;20.80;99.90
15481;DHT22;7842;50.904;6.670;2023-08-12T02:20:42;20.90;99.90
15481;DHT22;7842;50.904;6.670;2023-08-12T02:25:34;20.80;99.90
15481;DHT22;7842;50.904;6.670;2023-08-12T02:27:59;20.90;99.90
15481;DHT22;7842;50.904;6.670;2023-08-12T02:30:26;20.90;99.90
15481;DHT22;7842;50.904;6.670;2023-08-12T02:32:52;20.90;99.90
15481;DHT22;7842;50.904;6.670;2023-08-12T02:35:18;20.90;99.90
15481;DHT22;7842;50.904;6.670;2023-08-12T02:37:44;20.90;99.90
15481;DHT22;7842;50.904;6.670;2023-08-12T02:40:09;20.90;99.90
15481;DHT22;7842;50.904;6.670;2023-08-12T02:42:36;20.90;99.90
15481;DHT22;7842;50.904;6.670;2023-08-12T02:45:02;20.90;99.90
15481;DHT22;7842;50.904;6.670;2023-08-12T02:47:28;20.80;99.90
15481;DHT22;7842;50.904;6.670;2023-08-12T02:49:53;20.80;99.90
15481;DHT22;7842;50.904;6.670;2023-08-12T02:52:19;20.90;99.90
15481;DHT22;7842;50.904;6.670;2023-08-12T02:54:44;20.80;99.90
15481;DHT22;7842;50.904;6.670;2023-08-12T02:57:10;20.80;99.90
15481;DHT22;7842;50.904;6.670;2023-08-12T02:59:36;20.80;99.90
15481;DHT22;7842;50.904;6.670;2023-08-12T03:02:01;20.80;99.90
15481;DHT22;7842;50.904;6.670;2023-08-12T03:04:29;20.70;99.90
15481;DHT22;7842;50.904;6.670;2023-08-12T03:06:54;20.70;99.90
15481;DHT22;7842;50.904;6.670;2023-08-12T03:09:20;20.70;99.90
15481;DHT22;7842;50.904;6.670;2023-08-12T03:11:46;20.70;99.90
15481;DHT22;7842;50.904;6.670;2023-08-12T03:14:11;20.70;99.90
15481;DHT22;7842;50.904;6.670;2023-08-12T03:16:37;20.60;99.90
15481;DHT22;7842;50.904;6.670;2023-08-12T03:19:03;20.60;99.90
15481;DHT22;7842;50.904;6.670;2023-08-12T03:21:28;20.60;99.90
15481;DHT22;7842;50.904;6.670;2023-08-12T03:23:54;20.60;99.90
15481;DHT22;7842;50.904;6.670;2023-08-12T03:26:20;20.50;99.90
15481;DHT22;7842;50.904;6.670;2023-08-12T03:28:45;20.50;99.90
15481;DHT22;7842;50.904;6.670;2023-08-12T03:31:11;20.50;99.90
15481;DHT22;7842;50.904;6.670;2023-08-12T03:33:36;20.50;99.90
15481;DHT22;7842;50.904;6.670;2023-08-12T03:36:02;20.40;99.90
15481;DHT22;7842;50.904;6.670;2023-08-12T03:38:28;20.50;99.90
15481;DHT22;7842;50.904;6.670;2023-08-12T03:40:54;20.40;99.90
15481;DHT22;7842;50.904;6.670;2023-08-12T03:43:19;20.40;99.90
15481;DHT22;7842;50.904;6.670;2023-08-12T03:45:45;20.30;99.90
15481;DHT22;7842;50.904;6.670;2023-08-12T03:48:11;20.30;99.90
15481;DHT22;7842;50.904;6.670;2023-08-12T03:50:38;20.30;99.90
15481;DHT22;7842;50.904;6.670;2023-08-12T03:53:04;20.30;99.90
15481;DHT22;7842;50.904;6.670;2023-08-12T03:55:31;20.30;99.90
15481;DHT22;7842;50.904;6.670;2023-08-12T03:57:57;20.30;99.90
15481;DHT22;7842;50.904;6.670;2023-08-12T04:00:23;20.30;99.90
15481;DHT22;7842;50.904;6.670;2023-08-12T04:02:49;20.60;99.90
15481;DHT22;7842;50.904;6.670;2023-08-12T04:05:14;20.30;99.90
15481;DHT22;7842;50.904;6.670;2023-08-12T04:07:40;20.20;99.90
15481;DHT22;7842;50.904;6.670;2023-08-12T04:10:07;20.20;99.90
15481;DHT22;7842;50.904;6.670;2023-08-12T04:12:32;20.20;99.90
15481;DHT22;7842;50.904;6.670;2023-08-12T04:14:58;20.20;99.90
15481;DHT22;7842;50.904;6.670;2023-08-12T04:17:25;20.50;99.90
15481;DHT22;7842;50.904;6.670;2023-08-12T04:19:50;20.30;99.90
15481;DHT22;7842;50.904;6.670;2023-08-12T04:22:16;20.20;99.90
15481;DHT22;7842;50.904;6.670;2023-08-12T04:24:42;20.20;99.90
15481;DHT22;7842;50.904;6.670;2023-08-12T04:27:07;20.40;99.90
15481;DHT22;7842;50.904;6.670;2023-08-12T04:29:34;20.20;99.90
15481;DHT22;7842;50.904;6.670;2023-08-12T04:32:00;20.20;99.90
15481;DHT22;7842;50.904;6.670;2023-08-12T04:34:25;20.20;99.90
15481;DHT22;7842;50.904;6.670;2023-08-12T04:36:51;20.10;99.90
15481;DHT22;7842;50.904;6.670;2023-08-12T04:39:16;20.20;99.90
15481;DHT22;7842;50.904;6.670;2023-08-12T04:41:42;20.10;99.90
15481;DHT22;7842;50.904;6.670;2023-08-12T04:44:08;20.10;99.90
15481;DHT22;7842;50.904;6.670;2023-08-12T04:46:33;20.10;99.90
15481;DHT22;7842;50.904;6.670;2023-08-12T04:48:59;20.10;99.90
15481;DHT22;7842;50.904;6.670;2023-08-12T04:51:25;20.10;99.90
15481;DHT22;7842;50.904;6.670;2023-08-12T04:53:50;20.20;99.90
15481;DHT22;7842;50.904;6.670;2023-08-12T04:56:16;20.40;99.90
15481;DHT22;7842;50.904;6.670;2023-08-12T04:58:42;20.70;99.90
15481;DHT22;7842;50.904;6.670;2023-08-12T05:01:08;20.80;99.90
15481;DHT22;7842;50.904;6.670;2023-08-12T05:03:33;21.10;99.90
15481;DHT22;7842;50.904;6.670;2023-08-12T05:05:59;20.90;99.90
15481;DHT22;7842;50.904;6.670;2023-08-12T05:08:25;20.80;99.90
15481;DHT22;7842;50.904;6.670;2023-08-12T05:10:50;20.70;99.90
15481;DHT22;7842;50.904;6.670;2023-08-12T05:13:17;20.60;99.90
15481;DHT22;7842;50.904;6.670;2023-08-12T05:15:45;20.60;99.90
15481;DHT22;7842;50.904;6.670;2023-08-12T05:18:12;20.70;99.90
15481;DHT22;7842;50.904;6.670;2023-08-12T05:20:42;20.50;99.90
15481;DHT22;7842;50.904;6.670;2023-08-12T05:23:08;20.60;99.90
15481;DHT22;7842;50.904;6.670;2023-08-12T05:25:34;20.60;99.90
15481;DHT22;7842;50.904;6.670;2023-08-12T05:28:00;20.60;99.90
15481;DHT22;7842;50.904;6.670;2023-08-12T05:30:25;20.50;99.90
15481;DHT22;7842;50.904;6.670;2023-08-12T05:32:51;20.50;99.90
15481;DHT22;7842;50.904;6.670;2023-08-12T05:35:16;20.50;99.90
15481;DHT22;7842;50.904;6.670;2023-08-12T05:37:42;20.60;99.90
15481;DHT22;7842;50.904;6.670;2023-08-12T05:40:09;20.50;99.90
15481;DHT22;7842;50.904;6.670;2023-08-12T05:42:35;20.50;99.90
15481;DHT22;7842;50.904;6.670;2023-08-12T05:45:01;20.50;99.90
15481;DHT22;7842;50.904;6.670;2023-08-12T05:47:27;20.50;99.90
15481;DHT22;7842;50.904;6.670;2023-08-12T05:49:53;20.50;99.90
15481;DHT22;7842;50.904;6.670;2023-08-12T05:52:19;20.50;99.90
15481;DHT22;7842;50.904;6.670;2023-08-12T05:54:44;20.50;99.90
15481;DHT22;7842;50.904;6.670;2023-08-12T05:57:10;20.80;99.90
15481;DHT22;7842;50.904;6.670;2023-08-12T05:59:36;20.40;99.90
15481;DHT22;7842;50.904;6.670;2023-08-12T06:02:01;20.40;99.90
15481;DHT22;7842;50.904;6.670;2023-08-12T06:04:27;20.50;99.90
15481;DHT22;7842;50.904;6.670;2023-08-12T06:06:53;20.40;99.90
15481;DHT22;7842;50.904;6.670;2023-08-12T06:09:18;20.60;99.90
15481;DHT22;7842;50.904;6.670;2023-08-12T06:11:44;20.40;99.90
15481;DHT22;7842;50.904;6.670;2023-08-12T06:14:09;20.40;99.90
15481;DHT22;7842;50.904;6.670;2023-08-12T06:16:35;20.40;99.90
15481;DHT22;7842;50.904;6.670;2023-08-12T06:19:01;20.40;99.90
15481;DHT22;7842;50.904;6.670;2023-08-12T06:21:27;20.50;99.90
15481;DHT22;7842;50.904;6.670;2023-08-12T06:23:52;20.40;99.90
15481;DHT22;7842;50.904;6.670;2023-08-12T06:26:18;20.40;99.90
15481;DHT22;7842;50.904;6.670;2023-08-12T06:28:43;20.30;99.90
15481;DHT22;7842;50.904;6.670;2023-08-12T06:31:09;20.30;99.90
15481;DHT22;7842;50.904;6.670;2023-08-12T06:33:34;20.30;99.90
15481;DHT22;7842;50.904;6.670;2023-08-12T06:36:00;20.30;99.90
15481;DHT22;7842;50.904;6.670;2023-08-12T06:38:26;20.40;99.90
15481;DHT22;7842;50.904;6.670;2023-08-12T06:40:51;20.40;99.90
15481;DHT22;7842;50.904;6.670;2023-08-12T06:43:17;20.50;99.90
15481;DHT22;7842;50.904;6.670;2023-08-12T06:45:43;20.40;99.90
15481;DHT22;7842;50.904;6.670;2023-08-12T06:48:08;20.50;99.90
15481;DHT22;7842;50.904;6.670;2023-08-12T06:50:34;20.50;99.90
15481;DHT22;7842;50.904;6.670;2023-08-12T06:53:00;20.60;99.90
15481;DHT22;7842;50.904;6.670;2023-08-12T06:55:25;20.60;99.90
15481;DHT22;7842;50.904;6.670;2023-08-12T06:57:51;20.60;99.90
15481;DHT22;7842;50.904;6.670;2023-08-12T07:00:16;20.60;99.90
15481;DHT22;7842;50.904;6.670;2023-08-12T07:02:42;20.70;99.90
15481;DHT22;7842;50.904;6.670;2023-08-12T07:05:08;20.70;99.90
15481;DHT22;7842;50.904;6.670;2023-08-12T07:07:34;20.70;99.90
15481;DHT22;7842;50.904;6.670;2023-08-12T07:10:00;20.80;99.90
15481;DHT22;7842;50.904;6.670;2023-08-12T07:12:25;20.70;99.90
15481;DHT22;7842;50.904;6.670;2023-08-12T07:14:51;20.70;99.90
15481;DHT22;7842;50.904;6.670;2023-08-12T07:17:16;20.70;99.90
15481;DHT22;7842;50.904;6.670;2023-08-12T07:19:42;20.60;99.90
15481;DHT22;7842;50.904;6.670;2023-08-12T07:22:08;20.50;99.90
15481;DHT22;7842;50.904;6.670;2023-08-12T07:24:33;20.50;99.90
15481;DHT22;7842;50.904;6.670;2023-08-12T07:26:59;20.40;99.90
15481;DHT22;7842;50.904;6.670;2023-08-12T07:29:25;20.40;99.90
15481;DHT22;7842;50.904;6.670;2023-08-12T07:31:52;20.50;99.90
15481;DHT22;7842;50.904;6.670;2023-08-12T07:34:18;20.40;99.90
15481;DHT22;7842;50.904;6.670;2023-08-12T07:36:43;20.50;99.90
15481;DHT22;7842;50.904;6.670;2023-08-12T07:39:09;20.60;99.90
15481;DHT22;7842;50.904;6.670;2023-08-12T07:41:35;20.70;99.90
15481;DHT22;7842;50.904;6.670;2023-08-12T07:44:00;20.80;99.90
15481;DHT22;7842;50.904;6.670;2023-08-12T07:46:28;20.90;99.90
15481;DHT22;7842;50.904;6.670;2023-08-12T07:48:54;21.10;99.90
15481;DHT22;7842;50.904;6.670;2023-08-12T07:51:20;21.10;99.90
15481;DHT22;7842;50.904;6.670;2023-08-12T07:53:45;21.10;99.90
15481;DHT22;7842;50.904;6.670;2023-08-12T07:56:13;21.20;99.90
15481;DHT22;7842;50.904;6.670;2023-08-12T07:58:39;21.30;99.90
15481;DHT22;7842;50.904;6.670;2023-08-12T08:01:08;21.10;99.90
15481;DHT22;7842;50.904;6.670;2023-08-12T08:03:34;21.20;99.90
15481;DHT22;7842;50.904;6.670;2023-08-12T08:06:00;21.20;99.90
15481;DHT22;7842;50.904;6.670;2023-08-12T08:08:26;21.10;99.90
15481;DHT22;7842;50.904;6.670;2023-08-12T08:10:51;21.20;99.90
15481;DHT22;7842;50.904;6.670;2023-08-12T08:13:17;21.30;99.90
15481;DHT22;7842;50.904;6.670;2023-08-12T08:15:42;21.30;99.90
15481;DHT22;7842;50.904;6.670;2023-08-12T08:18:08;21.50;99.90
15481;DHT22;7842;50.904;6.670;2023-08-12T08:20:34;21.60;99.90
15481;DHT22;7842;50.904;6.670;2023-08-12T08:23:00;21.60;99.90
15481;DHT22;7842;50.904;6.670;2023-08-12T08:25:26;21.50;99.90
15481;DHT22;7842;50.904;6.670;2023-08-12T08:27:52;21.60;99.90
15481;DHT22;7842;50.904;6.670;2023-08-12T08:30:18;21.70;99.90
15481;DHT22;7842;50.904;6.670;2023-08-12T08:32:44;21.70;99.90
15481;DHT22;7842;50.904;6.670;2023-08-12T08:35:12;21.70;99.90
15481;DHT22;7842;50.904;6.670;2023-08-12T08:37:37;21.70;99.90
15481;DHT22;7842;50.904;6.670;2023-08-12T08:40:03;21.90;99.90
15481;DHT22;7842;50.904;6.670;2023-08-12T08:42:29;22.00;99.90
15481;DHT22;7842;50.904;6.670;2023-08-12T08:44:58;22.00;99.90
15481;DHT22;7842;50.904;6.670;2023-08-12T08:47:27;22.20;99.90
15481;DHT22;7842;50.904;6.670;2023-08-12T08:49:54;22.20;99.90
15481;DHT22;7842;50.904;6.670;2023-08-12T08:52:22;22.30;99.90
15481;DHT22;7842;50.904;6.670;2023-08-12T08:54:48;22.40;99.90
15481;DHT22;7842;50.904;6.670;2023-08-12T08:57:14;22.50;99.90
15481;DHT22;7842;50.904;6.670;2023-08-12T08:59:39;22.70;99.90
15481;DHT22;7842;50.904;6.670;2023-08-12T09:02:10;22.80;99.90
15481;DHT22;7842;50.904;6.670;2023-08-12T09:04:38;22.80;99.90
15481;DHT22;7842;50.904;6.670;2023-08-12T09:07:04;22.90;99.90
15481;DHT22;7842;50.904;6.670;2023-08-12T09:09:31;22.90;99.90
15481;DHT22;7842;50.904;6.670;2023-08-12T09:11:57;23.00;99.90
15481;DHT22;7842;50.904;6.670;2023-08-12T09:14:23;23.20;99.90
15481;DHT22;7842;50.904;6.670;2023-08-12T09:16:49;23.20;99.90
15481;DHT22;7842;50.904;6.670;2023-08-12T09:19:15;23.30;99.90
15481;DHT22;7842;50.904;6.670;2023-08-12T09:21:41;23.30;99.90
15481;DHT22;7842;50.904;6.670;2023-08-12T09:24:08;23.20;99.90
15481;DHT22;7842;50.904;6.670;2023-08-12T09:26:34;23.20;99.90
15481;DHT22;7842;50.904;6.670;2023-08-12T09:28:59;23.30;99.90
15481;DHT22;7842;50.904;6.670;2023-08-12T09:31:29;23.30;99.90
15481;DHT22;7842;50.904;6.670;2023-08-12T09:34:03;23.30;99.90
15481;DHT22;7842;50.904;6.670;2023-08-12T09:36:30;23.30;99.90
15481;DHT22;7842;50.904;6.670;2023-08-12T09:38:57;23.20;99.90
15481;DHT22;7842;50.904;6.670;2023-08-12T09:41:25;23.20;99.90
15481;DHT22;7842;50.904;6.670;2023-08-12T09:43:51;23.30;99.90
15481;DHT22;7842;50.904;6.670;2023-08-12T09:46:18;23.40;99.90
15481;DHT22;7842;50.904;6.670;2023-08-12T09:48:46;23.40;99.90
15481;DHT22;7842;50.904;6.670;2023-08-12T09:51:13;23.40;99.90
15481;DHT22;7842;50.904;6.670;2023-08-12T09:53:40;23.50;99.90
15481;DHT22;7842;50.904;6.670;2023-08-12T09:56:08;23.40;99.90
15481;DHT22;7842;50.904;6.670;2023-08-12T09:58:37;23.40;99.90
15481;DHT22;7842;50.904;6.670;2023-08-12T10:01:06;23.40;99.90
15481;DHT22;7842;50.904;6.670;2023-08-12T10:03:34;23.40;99.90
15481;DHT22;7842;50.904;6.670;2023-08-12T10:06:01;23.30;99.90
15481;DHT22;7842;50.904;6.670;2023-08-12T10:08:28;23.20;99.90
15481;DHT22;7842;50.904;6.670;2023-08-12T10:10:55;23.20;99.90
15481;DHT22;7842;50.904;6.670;2023-08-12T10:13:24;23.20;99.90
15481;DHT22;7842;50.904;6.670;2023-08-12T10:15:50;23.20;99.90
15481;DHT22;7842;50.904;6.670;2023-08-12T10:18:18;23.30;99.90
15481;DHT22;7842;50.904;6.670;2023-08-12T10:20:44;23.30;99.90
15481;DHT22;7842;50.904;6.670;2023-08-12T10:23:16;23.50;99.90
15481;DHT22;7842;50.904;6.670;2023-08-12T10:25:47;23.70;99.90
15481;DHT22;7842;50.904;6.670;2023-08-12T10:28:12;23.90;99.90
15481;DHT22;7842;50.904;6.670;2023-08-12T10:30:40;24.00;99.90
15481;DHT22;7842;50.904;6.670;2023-08-12T10:33:07;24.10;99.90
15481;DHT22;7842;50.904;6.670;2023-08-12T10:35:47;24.20;99.90
15481;DHT22;7842;50.904;6.670;2023-08-12T10:38:16;23.90;99.90
15481;DHT22;7842;50.904;6.670;2023-08-12T10:40:43;23.80;99.90
15481;DHT22;7842;50.904;6.670;2023-08-12T10:43:17;23.70;99.90
15481;DHT22;7842;50.904;6.670;2023-08-12T10:46:03;23.50;99.90
15481;DHT22;7842;50.904;6.670;2023-08-12T10:48:29;23.40;99.90
15481;DHT22;7842;50.904;6.670;2023-08-12T10:50:58;23.30;99.90
15481;DHT22;7842;50.904;6.670;2023-08-12T10:53:25;23.30;99.90
15481;DHT22;7842;50.904;6.670;2023-08-12T10:55:56;23.30;99.90
15481;DHT22;7842;50.904;6.670;2023-08-12T10:58:35;23.20;99.90
15481;DHT22;7842;50.904;6.670;2023-08-12T11:01:16;23.10;99.90
15481;DHT22;7842;50.904;6.670;2023-08-12T11:03:43;23.00;99.90
15481;DHT22;7842;50.904;6.670;2023-08-12T11:06:12;23.00;99.90
15481;DHT22;7842;50.904;6.670;2023-08-12T11:08:52;23.10;99.90
15481;DHT22;7842;50.904;6.670;2023-08-12T11:11:22;23.20;99.90
15481;DHT22;7842;50.904;6.670;2023-08-12T11:14:00;23.10;99.90
15481;DHT22;7842;50.904;6.670;2023-08-12T11:16:37;23.20;99.90
15481;DHT22;7842;50.904;6.670;2023-08-12T11:19:04;23.20;99.90
15481;DHT22;7842;50.904;6.670;2023-08-12T11:21:30;23.30;99.90
15481;DHT22;7842;50.904;6.670;2023-08-12T11:23:56;23.40;99.90
15481;DHT22;7842;50.904;6.670;2023-08-12T11:26:24;23.60;99.90
15481;DHT22;7842;50.904;6.670;2023-08-12T11:28:50;23.60;99.90
15481;DHT22;7842;50.904;6.670;2023-08-12T11:31:16;23.70;99.90
15481;DHT22;7842;50.904;6.670;2023-08-12T11:33:42;23.60;99.90
15481;DHT22;7842;50.904;6.670;2023-08-12T11:36:08;23.60;99.90
15481;DHT22;7842;50.904;6.670;2023-08-12T11:38:34;23.60;99.90
15481;DHT22;7842;50.904;6.670;2023-08-12T11:41:02;23.60;99.90
15481;DHT22;7842;50.904;6.670;2023-08-12T11:43:28;23.80;99.90
15481;DHT22;7842;50.904;6.670;2023-08-12T11:45:55;23.90;99.90
15481;DHT22;7842;50.904;6.670;2023-08-12T11:48:23;24.20;99.90
15481;DHT22;7842;50.904;6.670;2023-08-12T11:50:53;24.40;99.90
15481;DHT22;7842;50.904;6.670;2023-08-12T11:53:21;24.60;99.90
15481;DHT22;7842;50.904;6.670;2023-08-12T11:55:47;24.60;99.90
15481;DHT22;7842;50.904;6.670;2023-08-12T11:58:21;24.80;99.90
15481;DHT22;7842;50.904;6.670;2023-08-12T12:00:48;24.80;99.90
15481;DHT22;7842;50.904;6.670;2023-08-12T12:03:16;24.70;99.90
15481;DHT22;7842;50.904;6.670;2023-08-12T12:05:42;24.70;99.90
15481;DHT22;7842;50.904;6.670;2023-08-12T12:08:11;24.80;99.90
15481;DHT22;7842;50.904;6.670;2023-08-12T12:10:40;24.80;99.90
15481;DHT22;7842;50.904;6.670;2023-08-12T12:13:06;24.60;99.90
15481;DHT22;7842;50.904;6.670;2023-08-12T12:15:52;24.50;99.90
15481;DHT22;7842;50.904;6.670;2023-08-12T12:18:18;24.50;99.90
15481;DHT22;7842;50.904;6.670;2023-08-12T12:20:59;24.30;99.90
15481;DHT22;7842;50.904;6.670;2023-08-12T12:23:31;24.30;99.90
15481;DHT22;7842;50.904;6.670;2023-08-12T12:25:58;24.20;99.90
15481;DHT22;7842;50.904;6.670;2023-08-12T12:28:24;24.10;99.90
15481;DHT22;7842;50.904;6.670;2023-08-12T12:30:52;24.20;99.90
15481;DHT22;7842;50.904;6.670;2023-08-12T12:33:21;24.30;99.90
15481;DHT22;7842;50.904;6.670;2023-08-12T12:35:47;24.30;99.90
15481;DHT22;7842;50.904;6.670;2023-08-12T12:38:12;24.50;99.90
15481;DHT22;7842;50.904;6.670;2023-08-12T12:40:41;24.70;99.90
15481;DHT22;7842;50.904;6.670;2023-08-12T12:43:06;24.80;99.90
15481;DHT22;7842;50.904;6.670;2023-08-12T12:45:32;24.80;99.90
15481;DHT22;7842;50.904;6.670;2023-08-12T12:47:58;24.70;99.90
15481;DHT22;7842;50.904;6.670;2023-08-12T12:50:23;24.80;99.90
15481;DHT22;7842;50.904;6.670;2023-08-12T12:52:49;24.60;99.90
15481;DHT22;7842;50.904;6.670;2023-08-12T12:55:14;24.20;99.90
15481;DHT22;7842;50.904;6.670;2023-08-12T12:57:40;23.70;99.90
15481;DHT22;7842;50.904;6.670;2023-08-12T13:00:06;23.40;99.90
15481;DHT22;7842;50.904;6.670;2023-08-12T13:02:37;23.10;99.90
15481;DHT22;7842;50.904;6.670;2023-08-12T13:05:02;22.80;99.90
15481;DHT22;7842;50.904;6.670;2023-08-12T13:07:28;22.80;99.90
15481;DHT22;7842;50.904;6.670;2023-08-12T13:10:03;22.80;99.90
15481;DHT22;7842;50.904;6.670;2023-08-12T13:12:29;22.70;99.90
15481;DHT22;7842;50.904;6.670;2023-08-12T13:14:57;22.70;99.90
15481;DHT22;7842;50.904;6.670;2023-08-12T13:17:24;22.70;99.90
15481;DHT22;7842;50.904;6.670;2023-08-12T13:19:52;22.80;99.90
15481;DHT22;7842;50.904;6.670;2023-08-12T13:22:20;22.80;99.90
15481;DHT22;7842;50.904;6.670;2023-08-12T13:24:46;22.80;99.90
15481;DHT22;7842;50.904;6.670;2023-08-12T13:27:14;22.80;99.90
15481;DHT22;7842;50.904;6.670;2023-08-12T13:29:40;22.80;99.90
15481;DHT22;7842;50.904;6.670;2023-08-12T13:32:05;22.80;99.90
15481;DHT22;7842;50.904;6.670;2023-08-12T13:34:31;22.80;99.90
15481;DHT22;7842;50.904;6.670;2023-08-12T13:36:56;22.90;99.90
15481;DHT22;7842;50.904;6.670;2023-08-12T13:39:22;23.10;99.90
15481;DHT22;7842;50.904;6.670;2023-08-12T13:41:48;23.20;99.90
15481;DHT22;7842;50.904;6.670;2023-08-12T13:44:13;23.20;99.90
15481;DHT22;7842;50.904;6.670;2023-08-12T13:46:39;23.10;99.90
15481;DHT22;7842;50.904;6.670;2023-08-12T13:49:04;23.10;99.90
15481;DHT22;7842;50.904;6.670;2023-08-12T13:51:34;23.30;99.90
15481;DHT22;7842;50.904;6.670;2023-08-12T13:54:02;23.60;99.90
15481;DHT22;7842;50.904;6.670;2023-08-12T13:56:28;23.50;99.90
15481;DHT22;7842;50.904;6.670;2023-08-12T13:58:54;23.50;99.90
15481;DHT22;7842;50.904;6.670;2023-08-12T14:01:19;23.50;99.90
15481;DHT22;7842;50.904;6.670;2023-08-12T14:03:45;23.50;99.90
15481;DHT22;7842;50.904;6.670;2023-08-12T14:06:10;23.60;99.90
15481;DHT22;7842;50.904;6.670;2023-08-12T14:08:36;23.70;99.90
15481;DHT22;7842;50.904;6.670;2023-08-12T14:11:02;23.80;99.90
15481;DHT22;7842;50.904;6.670;2023-08-12T14:13:28;23.80;99.90
15481;DHT22;7842;50.904;6.670;2023-08-12T14:15:53;23.90;99.90
15481;DHT22;7842;50.904;6.670;2023-08-12T14:18:19;23.90;99.90
15481;DHT22;7842;50.904;6.670;2023-08-12T14:20:45;23.70;99.90
15481;DHT22;7842;50.904;6.670;2023-08-12T14:23:10;23.70;99.90
15481;DHT22;7842;50.904;6.670;2023-08-12T14:25:39;23.80;99.90
15481;DHT22;7842;50.904;6.670;2023-08-12T14:28:05;23.80;99.90
15481;DHT22;7842;50.904;6.670;2023-08-12T14:30:31;24.00;99.90
15481;DHT22;7842;50.904;6.670;2023-08-12T14:32:56;24.00;99.90
15481;DHT22;7842;50.904;6.670;2023-08-12T14:35:22;24.00;99.90
15481;DHT22;7842;50.904;6.670;2023-08-12T14:37:48;24.00;99.90
15481;DHT22;7842;50.904;6.670;2023-08-12T14:40:14;24.00;99.90
15481;DHT22;7842;50.904;6.670;2023-08-12T14:42:39;24.00;99.90
15481;DHT22;7842;50.904;6.670;2023-08-12T14:45:05;24.10;99.90
15481;DHT22;7842;50.904;6.670;2023-08-12T14:47:31;24.20;99.90
15481;DHT22;7842;50.904;6.670;2023-08-12T14:49:59;24.20;99.90
15481;DHT22;7842;50.904;6.670;2023-08-12T14:52:25;24.30;99.90
15481;DHT22;7842;50.904;6.670;2023-08-12T14:54:50;24.30;99.90
15481;DHT22;7842;50.904;6.670;2023-08-12T14:57:16;24.30;99.90
15481;DHT22;7842;50.904;6.670;2023-08-12T14:59:41;24.20;99.90
15481;DHT22;7842;50.904;6.670;2023-08-12T15:02:07;24.30;99.90
15481;DHT22;7842;50.904;6.670;2023-08-12T15:04:33;24.30;99.90
15481;DHT22;7842;50.904;6.670;2023-08-12T15:06:59;24.40;99.90
15481;DHT22;7842;50.904;6.670;2023-08-12T15:09:25;24.40;99.90
15481;DHT22;7842;50.904;6.670;2023-08-12T15:11:53;24.30;99.90
15481;DHT22;7842;50.904;6.670;2023-08-12T15:14:19;24.40;99.90
15481;DHT22;7842;50.904;6.670;2023-08-12T15:16:45;24.40;99.90
15481;DHT22;7842;50.904;6.670;2023-08-12T15:19:11;24.70;99.90
15481;DHT22;7842;50.904;6.670;2023-08-12T15:21:36;24.20;99.90
15481;DHT22;7842;50.904;6.670;2023-08-12T15:24:07;24.10;99.90
15481;DHT22;7842;50.904;6.670;2023-08-12T15:26:39;24.00;99.90
15481;DHT22;7842;50.904;6.670;2023-08-12T15:29:08;23.80;99.90
15481;DHT22;7842;50.904;6.670;2023-08-12T15:31:42;23.90;99.90
15481;DHT22;7842;50.904;6.670;2023-08-12T15:34:08;24.00;99.90
15481;DHT22;7842;50.904;6.670;2023-08-12T15:36:34;24.00;99.90
15481;DHT22;7842;50.904;6.670;2023-08-12T15:39:02;24.00;99.90
15481;DHT22;7842;50.904;6.670;2023-08-12T15:46:20;24.00;99.90
15481;DHT22;7842;50.904;6.670;2023-08-12T15:48:46;24.10;99.90